sensor_id;sensor_type;location;lat;lon;timestamp;P1;durP1;ratioP1;P2;durP2;ratioP2
8230;SDS011;4156;50.908;6.974;2023-04-25T00:00:41;7.53;;;3.63;;
8230;SDS011;4156;50.908;6.974;2023-04-25T00:03:06;5.67;;;3.00;;
8230;SDS011;4156;50.908;6.974;2023-04-25T00:05:33;7.07;;;3.37;;
8230;SDS011;4156;50.908;6.974;2023-04-25T00:07:59;5.10;;;2.97;;
8230;SDS011;4156;50.908;6.974;2023-04-25T00:10:25;9.57;;;3.43;;
8230;SDS011;4156;50.908;6.974;2023-04-25T00:12:50;5.07;;;2.90;;
8230;SDS011;4156;50.908;6.974;2023-04-25T00:15:16;8.90;;;3.67;;
8230;SDS011;4156;50.908;6.974;2023-04-25T00:17:42;10.33;;;3.23;;
8230;SDS011;4156;50.908;6.974;2023-04-25T00:20:08;8.70;;;3.23;;
8230;SDS011;4156;50.908;6.974;2023-04-25T00:22:34;6.40;;;3.37;;
8230;SDS011;4156;50.908;6.974;2023-04-25T00:25:02;7.03;;;3.57;;
8230;SDS011;4156;50.908;6.974;2023-04-25T00:27:29;9.17;;;3.30;;
8230;SDS011;4156;50.908;6.974;2023-04-25T00:29:54;9.77;;;3.40;;
8230;SDS011;4156;50.908;6.974;2023-04-25T00:32:20;8.77;;;3.53;;
8230;SDS011;4156;50.908;6.974;2023-04-25T00:34:45;11.13;;;4.23;;
8230;SDS011;4156;50.908;6.974;2023-04-25T00:37:11;5.60;;;3.23;;
8230;SDS011;4156;50.908;6.974;2023-04-25T00:39:37;8.87;;;3.50;;
8230;SDS011;4156;50.908;6.974;2023-04-25T00:42:03;9.57;;;3.73;;
8230;SDS011;4156;50.908;6.974;2023-04-25T00:44:29;10.47;;;3.67;;
8230;SDS011;4156;50.908;6.974;2023-04-25T00:46:57;9.27;;;3.20;;
8230;SDS011;4156;50.908;6.974;2023-04-25T00:49:22;5.70;;;2.90;;
8230;SDS011;4156;50.908;6.974;2023-04-25T00:51:48;8.73;;;3.37;;
8230;SDS011;4156;50.908;6.974;2023-04-25T00:54:14;6.13;;;3.00;;
8230;SDS011;4156;50.908;6.974;2023-04-25T00:56:40;9.50;;;3.73;;
8230;SDS011;4156;50.908;6.974;2023-04-25T00:59:06;10.43;;;4.03;;
8230;SDS011;4156;50.908;6.974;2023-04-25T01:01:34;6.47;;;4.00;;
8230;SDS011;4156;50.908;6.974;2023-04-25T01:04:00;7.90;;;3.57;;
8230;SDS011;4156;50.908;6.974;2023-04-25T01:06:26;9.03;;;3.17;;
8230;SDS011;4156;50.908;6.974;2023-04-25T01:08:52;8.03;;;3.33;;
8230;SDS011;4156;50.908;6.974;2023-04-25T01:11:18;6.60;;;3.27;;
8230;SDS011;4156;50.908;6.974;2023-04-25T01:13:44;9.93;;;4.50;;
8230;SDS011;4156;50.908;6.974;2023-04-25T01:16:10;9.27;;;4.00;;
8230;SDS011;4156;50.908;6.974;2023-04-25T01:18:36;8.93;;;3.43;;
8230;SDS011;4156;50.908;6.974;2023-04-25T01:21:10;10.13;;;4.20;;
8230;SDS011;4156;50.908;6.974;2023-04-25T01:23:41;11.67;;;3.90;;
8230;SDS011;4156;50.908;6.974;2023-04-25T01:26:08;12.27;;;5.03;;
8230;SDS011;4156;50.908;6.974;2023-04-25T01:28:35;9.50;;;3.30;;
8230;SDS011;4156;50.908;6.974;2023-04-25T01:31:02;9.53;;;4.10;;
8230;SDS011;4156;50.908;6.974;2023-04-25T01:33:28;11.00;;;4.20;;
8230;SDS011;4156;50.908;6.974;2023-04-25T01:35:54;10.83;;;3.83;;
8230;SDS011;4156;50.908;6.974;2023-04-25T01:38:20;7.60;;;4.10;;
8230;SDS011;4156;50.908;6.974;2023-04-25T01:40:45;9.13;;;3.73;;
8230;SDS011;4156;50.908;6.974;2023-04-25T01:43:14;9.43;;;4.13;;
8230;SDS011;4156;50.908;6.974;2023-04-25T01:45:40;9.20;;;3.53;;
8230;SDS011;4156;50.908;6.974;2023-04-25T01:48:10;7.67;;;3.70;;
8230;SDS011;4156;50.908;6.974;2023-04-25T01:50:38;8.33;;;3.93;;
8230;SDS011;4156;50.908;6.974;2023-04-25T01:53:04;7.87;;;3.43;;
8230;SDS011;4156;50.908;6.974;2023-04-25T01:55:30;12.43;;;3.80;;
8230;SDS011;4156;50.908;6.974;2023-04-25T01:57:56;10.27;;;4.20;;
8230;SDS011;4156;50.908;6.974;2023-04-25T02:00:21;11.37;;;3.77;;
8230;SDS011;4156;50.908;6.974;2023-04-25T02:02:47;10.33;;;3.87;;
8230;SDS011;4156;50.908;6.974;2023-04-25T02:05:13;8.93;;;3.77;;
8230;SDS011;4156;50.908;6.974;2023-04-25T02:07:38;8.13;;;3.50;;
8230;SDS011;4156;50.908;6.974;2023-04-25T02:10:04;11.50;;;3.77;;
8230;SDS011;4156;50.908;6.974;2023-04-25T02:12:30;11.53;;;3.67;;
8230;SDS011;4156;50.908;6.974;2023-04-25T02:14:57;7.30;;;3.57;;
8230;SDS011;4156;50.908;6.974;2023-04-25T02:17:22;9.10;;;3.90;;
8230;SDS011;4156;50.908;6.974;2023-04-25T02:19:48;5.57;;;3.40;;
8230;SDS011;4156;50.908;6.974;2023-04-25T02:22:13;12.10;;;4.63;;
8230;SDS011;4156;50.908;6.974;2023-04-25T02:24:39;10.03;;;4.23;;
8230;SDS011;4156;50.908;6.974;2023-04-25T02:27:05;10.50;;;3.90;;
8230;SDS011;4156;50.908;6.974;2023-04-25T02:29:31;7.80;;;3.50;;
8230;SDS011;4156;50.908;6.974;2023-04-25T02:31:56;8.63;;;3.30;;
8230;SDS011;4156;50.908;6.974;2023-04-25T02:34:22;12.27;;;4.03;;
8230;SDS011;4156;50.908;6.974;2023-04-25T02:36:48;5.77;;;3.03;;
8230;SDS011;4156;50.908;6.974;2023-04-25T02:39:15;7.80;;;3.10;;
8230;SDS011;4156;50.908;6.974;2023-04-25T02:41:41;7.23;;;3.77;;
8230;SDS011;4156;50.908;6.974;2023-04-25T02:44:07;8.00;;;3.20;;
8230;SDS011;4156;50.908;6.974;2023-04-25T02:46:32;8.17;;;3.30;;
8230;SDS011;4156;50.908;6.974;2023-04-25T02:48:58;6.37;;;2.90;;
8230;SDS011;4156;50.908;6.974;2023-04-25T02:51:23;6.33;;;3.30;;
8230;SDS011;4156;50.908;6.974;2023-04-25T02:53:49;9.73;;;3.10;;
8230;SDS011;4156;50.908;6.974;2023-04-25T02:56:14;8.03;;;3.30;;
8230;SDS011;4156;50.908;6.974;2023-04-25T02:58:40;9.90;;;3.40;;
8230;SDS011;4156;50.908;6.974;2023-04-25T03:01:06;8.67;;;3.20;;
8230;SDS011;4156;50.908;6.974;2023-04-25T03:03:31;7.17;;;2.83;;
8230;SDS011;4156;50.908;6.974;2023-04-25T03:05:57;5.97;;;3.47;;
8230;SDS011;4156;50.908;6.974;2023-04-25T03:08:22;8.20;;;2.90;;
8230;SDS011;4156;50.908;6.974;2023-04-25T03:10:48;8.03;;;3.13;;
8230;SDS011;4156;50.908;6.974;2023-04-25T03:13:16;8.23;;;3.17;;
8230;SDS011;4156;50.908;6.974;2023-04-25T03:15:41;7.50;;;3.37;;
8230;SDS011;4156;50.908;6.974;2023-04-25T03:18:07;5.77;;;3.40;;
8230;SDS011;4156;50.908;6.974;2023-04-25T03:20:32;7.93;;;3.70;;
8230;SDS011;4156;50.908;6.974;2023-04-25T03:22:58;7.67;;;3.60;;
8230;SDS011;4156;50.908;6.974;2023-04-25T03:25:23;8.83;;;3.20;;
8230;SDS011;4156;50.908;6.974;2023-04-25T03:27:49;5.10;;;2.93;;
8230;SDS011;4156;50.908;6.974;2023-04-25T03:30:14;8.30;;;3.20;;
8230;SDS011;4156;50.908;6.974;2023-04-25T03:32:40;10.03;;;3.37;;
8230;SDS011;4156;50.908;6.974;2023-04-25T03:35:05;7.47;;;3.23;;
8230;SDS011;4156;50.908;6.974;2023-04-25T03:37:31;5.70;;;3.10;;
8230;SDS011;4156;50.908;6.974;2023-04-25T03:39:57;7.27;;;3.50;;
8230;SDS011;4156;50.908;6.974;2023-04-25T03:42:22;7.17;;;3.63;;
8230;SDS011;4156;50.908;6.974;2023-04-25T03:44:48;10.13;;;3.40;;
8230;SDS011;4156;50.908;6.974;2023-04-25T03:47:14;9.13;;;3.70;;
8230;SDS011;4156;50.908;6.974;2023-04-25T03:49:40;7.00;;;3.43;;
8230;SDS011;4156;50.908;6.974;2023-04-25T03:52:06;9.00;;;3.80;;
8230;SDS011;4156;50.908;6.974;2023-04-25T03:54:32;15.13;;;3.50;;
8230;SDS011;4156;50.908;6.974;2023-04-25T03:56:57;7.23;;;3.60;;
8230;SDS011;4156;50.908;6.974;2023-04-25T03:59:23;9.33;;;3.57;;
8230;SDS011;4156;50.908;6.974;2023-04-25T04:01:49;8.50;;;3.50;;
8230;SDS011;4156;50.908;6.974;2023-04-25T04:04:15;9.20;;;3.60;;
8230;SDS011;4156;50.908;6.974;2023-04-25T04:06:41;10.50;;;3.67;;
8230;SDS011;4156;50.908;6.974;2023-04-25T04:09:07;9.40;;;3.80;;
8230;SDS011;4156;50.908;6.974;2023-04-25T04:11:35;8.57;;;3.77;;
8230;SDS011;4156;50.908;6.974;2023-04-25T04:14:03;5.77;;;3.30;;
8230;SDS011;4156;50.908;6.974;2023-04-25T04:16:32;6.20;;;3.77;;
8230;SDS011;4156;50.908;6.974;2023-04-25T04:18:57;9.50;;;3.47;;
8230;SDS011;4156;50.908;6.974;2023-04-25T04:21:23;6.33;;;3.40;;
8230;SDS011;4156;50.908;6.974;2023-04-25T04:23:48;5.60;;;3.53;;
8230;SDS011;4156;50.908;6.974;2023-04-25T04:26:14;8.97;;;3.37;;
8230;SDS011;4156;50.908;6.974;2023-04-25T04:28:43;7.53;;;3.13;;
8230;SDS011;4156;50.908;6.974;2023-04-25T04:31:09;9.80;;;3.93;;
8230;SDS011;4156;50.908;6.974;2023-04-25T04:33:35;16.23;;;6.30;;
8230;SDS011;4156;50.908;6.974;2023-04-25T04:36:01;6.97;;;3.40;;
8230;SDS011;4156;50.908;6.974;2023-04-25T04:38:28;11.90;;;3.43;;
8230;SDS011;4156;50.908;6.974;2023-04-25T04:40:54;6.37;;;3.73;;
8230;SDS011;4156;50.908;6.974;2023-04-25T04:43:19;9.63;;;4.00;;
8230;SDS011;4156;50.908;6.974;2023-04-25T04:45:45;10.83;;;3.80;;
8230;SDS011;4156;50.908;6.974;2023-04-25T04:48:10;7.57;;;3.30;;
8230;SDS011;4156;50.908;6.974;2023-04-25T04:50:39;10.07;;;3.83;;
8230;SDS011;4156;50.908;6.974;2023-04-25T04:53:05;8.20;;;3.87;;
8230;SDS011;4156;50.908;6.974;2023-04-25T04:55:30;8.83;;;3.63;;
8230;SDS011;4156;50.908;6.974;2023-04-25T04:57:56;10.77;;;3.50;;
8230;SDS011;4156;50.908;6.974;2023-04-25T05:00:21;10.30;;;4.20;;
8230;SDS011;4156;50.908;6.974;2023-04-25T05:02:47;7.10;;;3.73;;
8230;SDS011;4156;50.908;6.974;2023-04-25T05:05:13;9.60;;;3.83;;
8230;SDS011;4156;50.908;6.974;2023-04-25T05:07:38;8.77;;;3.47;;
8230;SDS011;4156;50.908;6.974;2023-04-25T05:10:04;10.37;;;3.83;;
8230;SDS011;4156;50.908;6.974;2023-04-25T05:12:30;9.63;;;3.50;;
8230;SDS011;4156;50.908;6.974;2023-04-25T05:14:55;7.67;;;3.50;;
8230;SDS011;4156;50.908;6.974;2023-04-25T05:17:21;8.63;;;3.50;;
8230;SDS011;4156;50.908;6.974;2023-04-25T05:19:46;10.77;;;3.67;;
8230;SDS011;4156;50.908;6.974;2023-04-25T05:22:12;9.47;;;3.73;;
8230;SDS011;4156;50.908;6.974;2023-04-25T05:24:37;15.03;;;4.10;;
8230;SDS011;4156;50.908;6.974;2023-04-25T05:27:03;6.90;;;4.10;;
8230;SDS011;4156;50.908;6.974;2023-04-25T05:29:28;9.20;;;3.90;;
8230;SDS011;4156;50.908;6.974;2023-04-25T05:31:54;8.67;;;3.60;;
8230;SDS011;4156;50.908;6.974;2023-04-25T05:34:20;9.67;;;3.53;;
8230;SDS011;4156;50.908;6.974;2023-04-25T05:36:45;11.10;;;4.10;;
8230;SDS011;4156;50.908;6.974;2023-04-25T05:39:13;12.17;;;4.23;;
8230;SDS011;4156;50.908;6.974;2023-04-25T05:41:42;13.33;;;3.90;;
8230;SDS011;4156;50.908;6.974;2023-04-25T05:44:08;6.83;;;3.33;;
8230;SDS011;4156;50.908;6.974;2023-04-25T05:46:33;9.67;;;4.07;;
8230;SDS011;4156;50.908;6.974;2023-04-25T05:48:59;10.67;;;3.80;;
8230;SDS011;4156;50.908;6.974;2023-04-25T05:51:24;8.20;;;3.77;;
8230;SDS011;4156;50.908;6.974;2023-04-25T05:53:50;8.33;;;3.80;;
8230;SDS011;4156;50.908;6.974;2023-04-25T05:56:16;10.47;;;3.90;;
8230;SDS011;4156;50.908;6.974;2023-04-25T05:58:42;11.43;;;4.27;;
8230;SDS011;4156;50.908;6.974;2023-04-25T06:01:07;8.50;;;3.57;;
8230;SDS011;4156;50.908;6.974;2023-04-25T06:03:33;10.37;;;3.97;;
8230;SDS011;4156;50.908;6.974;2023-04-25T06:05:59;8.63;;;3.43;;
8230;SDS011;4156;50.908;6.974;2023-04-25T06:08:25;5.47;;;3.20;;
8230;SDS011;4156;50.908;6.974;2023-04-25T06:10:50;9.93;;;3.77;;
8230;SDS011;4156;50.908;6.974;2023-04-25T06:13:16;11.13;;;3.90;;
8230;SDS011;4156;50.908;6.974;2023-04-25T06:15:41;11.83;;;4.10;;
8230;SDS011;4156;50.908;6.974;2023-04-25T06:18:07;11.03;;;3.70;;
8230;SDS011;4156;50.908;6.974;2023-04-25T06:20:32;11.13;;;4.30;;
8230;SDS011;4156;50.908;6.974;2023-04-25T06:22:58;8.30;;;3.90;;
8230;SDS011;4156;50.908;6.974;2023-04-25T06:25:23;11.13;;;4.23;;
8230;SDS011;4156;50.908;6.974;2023-04-25T06:27:49;7.63;;;3.70;;
8230;SDS011;4156;50.908;6.974;2023-04-25T06:30:14;8.37;;;3.70;;
8230;SDS011;4156;50.908;6.974;2023-04-25T06:32:41;8.30;;;3.97;;
8230;SDS011;4156;50.908;6.974;2023-04-25T06:35:06;10.80;;;4.13;;
8230;SDS011;4156;50.908;6.974;2023-04-25T06:37:32;10.33;;;3.70;;
8230;SDS011;4156;50.908;6.974;2023-04-25T06:39:58;11.03;;;4.43;;
8230;SDS011;4156;50.908;6.974;2023-04-25T06:42:23;5.67;;;3.20;;
8230;SDS011;4156;50.908;6.974;2023-04-25T06:44:49;7.33;;;3.60;;
8230;SDS011;4156;50.908;6.974;2023-04-25T06:47:14;6.13;;;3.10;;
8230;SDS011;4156;50.908;6.974;2023-04-25T06:49:40;8.63;;;3.37;;
8230;SDS011;4156;50.908;6.974;2023-04-25T06:52:05;6.50;;;3.03;;
8230;SDS011;4156;50.908;6.974;2023-04-25T06:54:32;9.93;;;3.57;;
8230;SDS011;4156;50.908;6.974;2023-04-25T06:56:57;16.67;;;4.57;;
8230;SDS011;4156;50.908;6.974;2023-04-25T06:59:23;10.73;;;3.80;;
8230;SDS011;4156;50.908;6.974;2023-04-25T07:01:49;9.13;;;3.43;;
8230;SDS011;4156;50.908;6.974;2023-04-25T07:04:14;7.33;;;3.20;;
8230;SDS011;4156;50.908;6.974;2023-04-25T07:06:40;7.93;;;3.53;;
8230;SDS011;4156;50.908;6.974;2023-04-25T07:09:09;6.43;;;3.03;;
8230;SDS011;4156;50.908;6.974;2023-04-25T07:11:37;9.50;;;4.00;;
8230;SDS011;4156;50.908;6.974;2023-04-25T07:14:03;9.50;;;4.10;;
8230;SDS011;4156;50.908;6.974;2023-04-25T07:16:29;8.10;;;3.57;;
8230;SDS011;4156;50.908;6.974;2023-04-25T07:18:55;11.40;;;3.90;;
8230;SDS011;4156;50.908;6.974;2023-04-25T07:21:20;13.47;;;3.87;;
8230;SDS011;4156;50.908;6.974;2023-04-25T07:23:46;12.10;;;4.13;;
8230;SDS011;4156;50.908;6.974;2023-04-25T07:26:11;12.85;;;4.97;;
8230;SDS011;4156;50.908;6.974;2023-04-25T07:28:37;8.00;;;3.93;;
8230;SDS011;4156;50.908;6.974;2023-04-25T07:31:03;8.77;;;3.03;;
8230;SDS011;4156;50.908;6.974;2023-04-25T07:33:28;10.77;;;3.50;;
8230;SDS011;4156;50.908;6.974;2023-04-25T07:35:54;5.33;;;2.70;;
8230;SDS011;4156;50.908;6.974;2023-04-25T07:38:20;9.43;;;2.90;;
8230;SDS011;4156;50.908;6.974;2023-04-25T07:40:47;8.60;;;2.97;;
8230;SDS011;4156;50.908;6.974;2023-04-25T07:43:13;11.23;;;3.23;;
8230;SDS011;4156;50.908;6.974;2023-04-25T07:45:41;7.23;;;3.53;;
8230;SDS011;4156;50.908;6.974;2023-04-25T07:48:07;9.50;;;2.70;;
8230;SDS011;4156;50.908;6.974;2023-04-25T07:50:33;9.23;;;2.80;;
8230;SDS011;4156;50.908;6.974;2023-04-25T07:52:59;6.20;;;2.80;;
8230;SDS011;4156;50.908;6.974;2023-04-25T07:55:24;9.70;;;3.50;;
8230;SDS011;4156;50.908;6.974;2023-04-25T07:57:50;5.17;;;3.07;;
8230;SDS011;4156;50.908;6.974;2023-04-25T08:00:15;9.20;;;3.17;;
8230;SDS011;4156;50.908;6.974;2023-04-25T08:02:41;6.30;;;2.70;;
8230;SDS011;4156;50.908;6.974;2023-04-25T08:05:07;8.67;;;2.97;;
8230;SDS011;4156;50.908;6.974;2023-04-25T08:07:36;6.67;;;3.00;;
8230;SDS011;4156;50.908;6.974;2023-04-25T08:10:02;9.13;;;3.43;;
8230;SDS011;4156;50.908;6.974;2023-04-25T08:12:28;5.87;;;3.10;;
8230;SDS011;4156;50.908;6.974;2023-04-25T08:14:54;6.17;;;3.43;;
8230;SDS011;4156;50.908;6.974;2023-04-25T08:17:19;11.67;;;3.93;;
8230;SDS011;4156;50.908;6.974;2023-04-25T08:19:45;7.00;;;3.30;;
8230;SDS011;4156;50.908;6.974;2023-04-25T08:22:10;9.53;;;3.23;;
8230;SDS011;4156;50.908;6.974;2023-04-25T08:24:36;8.83;;;3.13;;
8230;SDS011;4156;50.908;6.974;2023-04-25T08:27:01;10.53;;;3.40;;
8230;SDS011;4156;50.908;6.974;2023-04-25T08:29:27;8.70;;;3.53;;
8230;SDS011;4156;50.908;6.974;2023-04-25T08:31:53;8.63;;;3.07;;
8230;SDS011;4156;50.908;6.974;2023-04-25T08:34:18;10.83;;;2.70;;
8230;SDS011;4156;50.908;6.974;2023-04-25T08:36:45;6.53;;;2.60;;
8230;SDS011;4156;50.908;6.974;2023-04-25T08:39:11;7.83;;;3.07;;
8230;SDS011;4156;50.908;6.974;2023-04-25T08:41:37;9.03;;;3.13;;
8230;SDS011;4156;50.908;6.974;2023-04-25T08:44:02;6.53;;;2.80;;
8230;SDS011;4156;50.908;6.974;2023-04-25T08:46:28;6.77;;;2.57;;
8230;SDS011;4156;50.908;6.974;2023-04-25T08:48:56;4.83;;;2.60;;
8230;SDS011;4156;50.908;6.974;2023-04-25T08:51:26;6.47;;;2.73;;
8230;SDS011;4156;50.908;6.974;2023-04-25T08:53:55;4.70;;;2.40;;
8230;SDS011;4156;50.908;6.974;2023-04-25T08:56:27;7.37;;;2.67;;
8230;SDS011;4156;50.908;6.974;2023-04-25T08:58:53;5.83;;;2.53;;
8230;SDS011;4156;50.908;6.974;2023-04-25T09:01:20;6.50;;;2.30;;
8230;SDS011;4156;50.908;6.974;2023-04-25T09:03:46;8.63;;;2.97;;
8230;SDS011;4156;50.908;6.974;2023-04-25T09:06:12;6.73;;;2.60;;
8230;SDS011;4156;50.908;6.974;2023-04-25T09:08:38;6.63;;;2.30;;
8230;SDS011;4156;50.908;6.974;2023-04-25T09:11:06;6.10;;;2.20;;
8230;SDS011;4156;50.908;6.974;2023-04-25T09:13:31;8.23;;;3.20;;
8230;SDS011;4156;50.908;6.974;2023-04-25T09:15:57;7.87;;;2.43;;
8230;SDS011;4156;50.908;6.974;2023-04-25T09:20:53;4.73;;;2.30;;
8230;SDS011;4156;50.908;6.974;2023-04-25T09:23:29;4.20;;;2.27;;
8230;SDS011;4156;50.908;6.974;2023-04-25T09:25:55;5.93;;;2.37;;
8230;SDS011;4156;50.908;6.974;2023-04-25T09:28:24;5.17;;;2.37;;
8230;SDS011;4156;50.908;6.974;2023-04-25T09:30:54;6.53;;;2.30;;
8230;SDS011;4156;50.908;6.974;2023-04-25T09:33:26;9.53;;;2.83;;
8230;SDS011;4156;50.908;6.974;2023-04-25T09:35:54;7.63;;;2.50;;
8230;SDS011;4156;50.908;6.974;2023-04-25T09:38:40;5.33;;;2.20;;
8230;SDS011;4156;50.908;6.974;2023-04-25T09:41:07;4.17;;;2.10;;
8230;SDS011;4156;50.908;6.974;2023-04-25T09:43:33;7.07;;;2.47;;
8230;SDS011;4156;50.908;6.974;2023-04-25T09:45:59;8.10;;;2.53;;
8230;SDS011;4156;50.908;6.974;2023-04-25T09:48:26;4.43;;;2.23;;
8230;SDS011;4156;50.908;6.974;2023-04-25T09:51:11;4.70;;;2.13;;
8230;SDS011;4156;50.908;6.974;2023-04-25T09:53:42;5.83;;;2.70;;
8230;SDS011;4156;50.908;6.974;2023-04-25T09:56:11;5.57;;;2.37;;
8230;SDS011;4156;50.908;6.974;2023-04-25T09:58:38;4.10;;;2.10;;
8230;SDS011;4156;50.908;6.974;2023-04-25T10:01:05;6.80;;;2.27;;
8230;SDS011;4156;50.908;6.974;2023-04-25T10:03:33;6.90;;;2.23;;
8230;SDS011;4156;50.908;6.974;2023-04-25T10:06:01;5.27;;;2.17;;
8230;SDS011;4156;50.908;6.974;2023-04-25T10:08:31;5.10;;;2.00;;
8230;SDS011;4156;50.908;6.974;2023-04-25T10:11:03;6.80;;;2.40;;
8230;SDS011;4156;50.908;6.974;2023-04-25T10:13:30;6.60;;;1.90;;
8230;SDS011;4156;50.908;6.974;2023-04-25T10:16:03;6.23;;;2.17;;
8230;SDS011;4156;50.908;6.974;2023-04-25T10:18:48;9.53;;;3.43;;
8230;SDS011;4156;50.908;6.974;2023-04-25T10:21:15;6.97;;;3.07;;
8230;SDS011;4156;50.908;6.974;2023-04-25T10:23:41;6.87;;;2.30;;
8230;SDS011;4156;50.908;6.974;2023-04-25T10:26:09;5.37;;;2.30;;
8230;SDS011;4156;50.908;6.974;2023-04-25T10:31:32;7.07;;;2.50;;
8230;SDS011;4156;50.908;6.974;2023-04-25T10:34:10;7.13;;;2.70;;
8230;SDS011;4156;50.908;6.974;2023-04-25T10:36:36;9.43;;;2.83;;
8230;SDS011;4156;50.908;6.974;2023-04-25T10:39:04;6.73;;;2.30;;
8230;SDS011;4156;50.908;6.974;2023-04-25T10:41:56;6.27;;;2.23;;
8230;SDS011;4156;50.908;6.974;2023-04-25T10:44:22;8.77;;;2.27;;
8230;SDS011;4156;50.908;6.974;2023-04-25T10:46:54;13.57;;;3.30;;
8230;SDS011;4156;50.908;6.974;2023-04-25T10:49:33;5.43;;;2.50;;
8230;SDS011;4156;50.908;6.974;2023-04-25T10:52:13;5.10;;;2.27;;
8230;SDS011;4156;50.908;6.974;2023-04-25T10:57:26;5.47;;;2.63;;
8230;SDS011;4156;50.908;6.974;2023-04-25T11:00:05;5.00;;;2.60;;
8230;SDS011;4156;50.908;6.974;2023-04-25T11:02:40;7.70;;;2.50;;
8230;SDS011;4156;50.908;6.974;2023-04-25T11:05:29;9.47;;;2.47;;
8230;SDS011;4156;50.908;6.974;2023-04-25T11:07:55;5.93;;;2.43;;
8230;SDS011;4156;50.908;6.974;2023-04-25T11:10:25;3.97;;;2.03;;
8230;SDS011;4156;50.908;6.974;2023-04-25T11:12:52;4.73;;;2.13;;
8230;SDS011;4156;50.908;6.974;2023-04-25T11:15:18;8.47;;;2.20;;
8230;SDS011;4156;50.908;6.974;2023-04-25T11:17:45;4.80;;;2.07;;
8230;SDS011;4156;50.908;6.974;2023-04-25T11:20:12;6.43;;;2.30;;
8230;SDS011;4156;50.908;6.974;2023-04-25T11:22:40;6.37;;;2.00;;
8230;SDS011;4156;50.908;6.974;2023-04-25T11:25:10;10.20;;;2.57;;
8230;SDS011;4156;50.908;6.974;2023-04-25T11:30:15;6.93;;;2.57;;
8230;SDS011;4156;50.908;6.974;2023-04-25T11:32:44;6.97;;;2.47;;
8230;SDS011;4156;50.908;6.974;2023-04-25T11:35:11;5.27;;;2.40;;
8230;SDS011;4156;50.908;6.974;2023-04-25T11:37:40;6.47;;;2.17;;
8230;SDS011;4156;50.908;6.974;2023-04-25T11:50:14;5.10;;;2.07;;
8230;SDS011;4156;50.908;6.974;2023-04-25T11:52:45;5.83;;;2.77;;
8230;SDS011;4156;50.908;6.974;2023-04-25T11:55:14;4.63;;;1.77;;
8230;SDS011;4156;50.908;6.974;2023-04-25T11:57:45;4.80;;;2.20;;
8230;SDS011;4156;50.908;6.974;2023-04-25T12:00:20;7.87;;;2.27;;
8230;SDS011;4156;50.908;6.974;2023-04-25T12:02:51;4.37;;;1.93;;
8230;SDS011;4156;50.908;6.974;2023-04-25T12:05:17;2.67;;;1.77;;
8230;SDS011;4156;50.908;6.974;2023-04-25T12:07:44;6.70;;;2.77;;
8230;SDS011;4156;50.908;6.974;2023-04-25T12:10:11;4.07;;;1.97;;
8230;SDS011;4156;50.908;6.974;2023-04-25T12:12:41;3.40;;;1.77;;
8230;SDS011;4156;50.908;6.974;2023-04-25T12:15:28;3.30;;;1.70;;
8230;SDS011;4156;50.908;6.974;2023-04-25T12:17:53;3.13;;;1.80;;
8230;SDS011;4156;50.908;6.974;2023-04-25T12:20:20;3.80;;;1.70;;
8230;SDS011;4156;50.908;6.974;2023-04-25T12:22:49;2.70;;;1.77;;
8230;SDS011;4156;50.908;6.974;2023-04-25T12:25:34;5.13;;;2.67;;
8230;SDS011;4156;50.908;6.974;2023-04-25T12:28:15;2.73;;;1.80;;
8230;SDS011;4156;50.908;6.974;2023-04-25T12:33:32;2.93;;;1.83;;
8230;SDS011;4156;50.908;6.974;2023-04-25T12:36:02;5.77;;;1.97;;
8230;SDS011;4156;50.908;6.974;2023-04-25T12:38:35;4.53;;;2.23;;
8230;SDS011;4156;50.908;6.974;2023-04-25T12:41:02;2.50;;;1.93;;
8230;SDS011;4156;50.908;6.974;2023-04-25T12:43:27;5.73;;;1.90;;
8230;SDS011;4156;50.908;6.974;2023-04-25T12:45:54;3.67;;;1.77;;
8230;SDS011;4156;50.908;6.974;2023-04-25T12:48:20;3.60;;;2.00;;
8230;SDS011;4156;50.908;6.974;2023-04-25T12:50:47;2.73;;;1.80;;
8230;SDS011;4156;50.908;6.974;2023-04-25T12:53:19;3.03;;;1.97;;
8230;SDS011;4156;50.908;6.974;2023-04-25T12:55:46;4.33;;;2.03;;
8230;SDS011;4156;50.908;6.974;2023-04-25T12:58:14;4.00;;;1.80;;
8230;SDS011;4156;50.908;6.974;2023-04-25T13:00:41;3.43;;;2.30;;
8230;SDS011;4156;50.908;6.974;2023-04-25T13:03:07;2.70;;;1.90;;
8230;SDS011;4156;50.908;6.974;2023-04-25T13:05:33;6.33;;;2.07;;
8230;SDS011;4156;50.908;6.974;2023-04-25T13:07:58;4.73;;;2.17;;
8230;SDS011;4156;50.908;6.974;2023-04-25T13:10:24;7.90;;;2.20;;
8230;SDS011;4156;50.908;6.974;2023-04-25T13:12:50;3.87;;;2.00;;
8230;SDS011;4156;50.908;6.974;2023-04-25T13:15:15;6.87;;;2.10;;
8230;SDS011;4156;50.908;6.974;2023-04-25T13:17:41;4.40;;;2.10;;
8230;SDS011;4156;50.908;6.974;2023-04-25T13:20:07;6.77;;;2.10;;
8230;SDS011;4156;50.908;6.974;2023-04-25T13:22:35;3.80;;;1.90;;
8230;SDS011;4156;50.908;6.974;2023-04-25T13:25:04;5.80;;;2.50;;
8230;SDS011;4156;50.908;6.974;2023-04-25T13:27:31;3.63;;;1.80;;
8230;SDS011;4156;50.908;6.974;2023-04-25T13:29:58;4.03;;;2.30;;
8230;SDS011;4156;50.908;6.974;2023-04-25T13:32:25;4.70;;;1.93;;
8230;SDS011;4156;50.908;6.974;2023-04-25T13:34:51;3.77;;;2.27;;
8230;SDS011;4156;50.908;6.974;2023-04-25T13:37:17;2.97;;;1.70;;
8230;SDS011;4156;50.908;6.974;2023-04-25T13:39:43;3.20;;;2.00;;
8230;SDS011;4156;50.908;6.974;2023-04-25T13:42:08;2.80;;;1.57;;
8230;SDS011;4156;50.908;6.974;2023-04-25T13:44:34;3.43;;;1.80;;
8230;SDS011;4156;50.908;6.974;2023-04-25T13:46:59;2.67;;;1.90;;
8230;SDS011;4156;50.908;6.974;2023-04-25T13:49:25;3.20;;;1.80;;
8230;SDS011;4156;50.908;6.974;2023-04-25T13:51:51;3.37;;;1.80;;
8230;SDS011;4156;50.908;6.974;2023-04-25T13:54:17;5.77;;;1.60;;
8230;SDS011;4156;50.908;6.974;2023-04-25T13:56:42;2.60;;;1.60;;
8230;SDS011;4156;50.908;6.974;2023-04-25T13:59:08;5.63;;;2.00;;
8230;SDS011;4156;50.908;6.974;2023-04-25T14:01:33;3.53;;;1.53;;
8230;SDS011;4156;50.908;6.974;2023-04-25T14:04:00;2.80;;;1.70;;
8230;SDS011;4156;50.908;6.974;2023-04-25T14:06:26;2.53;;;1.70;;
8230;SDS011;4156;50.908;6.974;2023-04-25T14:08:53;2.90;;;1.67;;
8230;SDS011;4156;50.908;6.974;2023-04-25T14:11:18;3.40;;;1.63;;
8230;SDS011;4156;50.908;6.974;2023-04-25T14:13:44;3.17;;;1.53;;
8230;SDS011;4156;50.908;6.974;2023-04-25T14:16:10;6.80;;;1.70;;
8230;SDS011;4156;50.908;6.974;2023-04-25T14:18:36;3.93;;;1.43;;
8230;SDS011;4156;50.908;6.974;2023-04-25T14:21:01;2.40;;;1.50;;
8230;SDS011;4156;50.908;6.974;2023-04-25T14:23:27;1.87;;;1.30;;
8230;SDS011;4156;50.908;6.974;2023-04-25T14:25:52;2.50;;;1.63;;
8230;SDS011;4156;50.908;6.974;2023-04-25T14:28:18;2.30;;;1.40;;
8230;SDS011;4156;50.908;6.974;2023-04-25T14:30:44;5.40;;;1.60;;
8230;SDS011;4156;50.908;6.974;2023-04-25T14:33:10;3.90;;;1.70;;
8230;SDS011;4156;50.908;6.974;2023-04-25T14:35:36;3.10;;;1.70;;
8230;SDS011;4156;50.908;6.974;2023-04-25T14:38:02;2.73;;;1.50;;
8230;SDS011;4156;50.908;6.974;2023-04-25T14:40:28;2.63;;;1.70;;
8230;SDS011;4156;50.908;6.974;2023-04-25T14:42:53;2.63;;;1.60;;
8230;SDS011;4156;50.908;6.974;2023-04-25T14:45:19;1.93;;;1.53;;
8230;SDS011;4156;50.908;6.974;2023-04-25T14:47:44;4.43;;;1.50;;
8230;SDS011;4156;50.908;6.974;2023-04-25T14:50:10;1.83;;;1.40;;
8230;SDS011;4156;50.908;6.974;2023-04-25T14:52:36;3.73;;;1.40;;
8230;SDS011;4156;50.908;6.974;2023-04-25T14:55:02;1.97;;;1.37;;
8230;SDS011;4156;50.908;6.974;2023-04-25T14:57:32;4.00;;;1.40;;
8230;SDS011;4156;50.908;6.974;2023-04-25T14:59:59;2.60;;;1.37;;
8230;SDS011;4156;50.908;6.974;2023-04-25T15:02:25;2.80;;;1.50;;
8230;SDS011;4156;50.908;6.974;2023-04-25T15:04:51;3.90;;;2.10;;
8230;SDS011;4156;50.908;6.974;2023-04-25T15:07:17;3.23;;;2.03;;
8230;SDS011;4156;50.908;6.974;2023-04-25T15:09:42;4.97;;;2.07;;
8230;SDS011;4156;50.908;6.974;2023-04-25T15:12:08;4.60;;;1.83;;
8230;SDS011;4156;50.908;6.974;2023-04-25T15:14:34;3.33;;;1.57;;
8230;SDS011;4156;50.908;6.974;2023-04-25T15:17:00;2.60;;;1.40;;
8230;SDS011;4156;50.908;6.974;2023-04-25T15:19:25;2.03;;;1.50;;
8230;SDS011;4156;50.908;6.974;2023-04-25T15:21:51;2.60;;;1.60;;
8230;SDS011;4156;50.908;6.974;2023-04-25T15:24:17;2.33;;;1.83;;
8230;SDS011;4156;50.908;6.974;2023-04-25T15:26:43;4.63;;;2.00;;
8230;SDS011;4156;50.908;6.974;2023-04-25T15:29:08;2.90;;;1.80;;
8230;SDS011;4156;50.908;6.974;2023-04-25T15:31:34;3.97;;;1.70;;
8230;SDS011;4156;50.908;6.974;2023-04-25T15:34:00;3.83;;;2.00;;